sensor_id;sensor_type;location;lat;lon;timestamp;temperature;humidity
8711;DHT22;4392;47.400;8.062;2023-05-29T00:00:29;22.40;55.90
8711;DHT22;4392;47.400;8.062;2023-05-29T00:02:57;22.50;57.70
8711;DHT22;4392;47.400;8.062;2023-05-29T00:05:27;22.50;56.70
8711;DHT22;4392;47.400;8.062;2023-05-29T00:07:55;22.50;56.60
8711;DHT22;4392;47.400;8.062;2023-05-29T00:10:24;22.40;58.10
8711;DHT22;4392;47.400;8.062;2023-05-29T00:12:55;22.40;55.70
8711;DHT22;4392;47.400;8.062;2023-05-29T00:15:23;22.40;58.30
8711;DHT22;4392;47.400;8.062;2023-05-29T00:17:49;22.40;57.70
8711;DHT22;4392;47.400;8.062;2023-05-29T00:20:15;22.40;58.00
8711;DHT22;4392;47.400;8.062;2023-05-29T00:22:44;22.40;57.10
8711;DHT22;4392;47.400;8.062;2023-05-29T00:25:10;22.30;58.20
8711;DHT22;4392;47.400;8.062;2023-05-29T00:27:37;22.30;56.60
8711;DHT22;4392;47.400;8.062;2023-05-29T00:30:08;22.40;57.10
8711;DHT22;4392;47.400;8.062;2023-05-29T00:32:34;22.30;56.20
8711;DHT22;4392;47.400;8.062;2023-05-29T00:35:01;22.30;55.70
8711;DHT22;4392;47.400;8.062;2023-05-29T00:37:28;22.20;57.80
8711;DHT22;4392;47.400;8.062;2023-05-29T00:39:57;22.30;57.70
8711;DHT22;4392;47.400;8.062;2023-05-29T00:42:22;22.30;55.40
8711;DHT22;4392;47.400;8.062;2023-05-29T00:44:53;22.20;56.20
8711;DHT22;4392;47.400;8.062;2023-05-29T00:47:25;22.20;58.20
8711;DHT22;4392;47.400;8.062;2023-05-29T00:49:54;22.10;57.60
8711;DHT22;4392;47.400;8.062;2023-05-29T00:52:24;22.00;57.80
8711;DHT22;4392;47.400;8.062;2023-05-29T00:54:51;22.00;58.50
8711;DHT22;4392;47.400;8.062;2023-05-29T00:57:17;22.00;58.40
8711;DHT22;4392;47.400;8.062;2023-05-29T00:59:45;21.90;58.50
8711;DHT22;4392;47.400;8.062;2023-05-29T01:02:18;21.90;58.60
8711;DHT22;4392;47.400;8.062;2023-05-29T01:04:45;21.90;58.90
8711;DHT22;4392;47.400;8.062;2023-05-29T01:07:22;21.90;60.50
8711;DHT22;4392;47.400;8.062;2023-05-29T01:09:55;21.60;58.30
8711;DHT22;4392;47.400;8.062;2023-05-29T01:29:04;20.60;62.30
8711;DHT22;4392;47.400;8.062;2023-05-29T01:31:37;20.50;63.10
8711;DHT22;4392;47.400;8.062;2023-05-29T01:34:04;20.50;63.10
8711;DHT22;4392;47.400;8.062;2023-05-29T01:36:36;20.50;63.50
8711;DHT22;4392;47.400;8.062;2023-05-29T01:39:02;20.50;63.70
8711;DHT22;4392;47.400;8.062;2023-05-29T01:41:31;20.40;64.10
8711;DHT22;4392;47.400;8.062;2023-05-29T01:44:00;20.30;63.80
8711;DHT22;4392;47.400;8.062;2023-05-29T01:46:30;20.30;64.40
8711;DHT22;4392;47.400;8.062;2023-05-29T01:48:59;20.20;64.30
8711;DHT22;4392;47.400;8.062;2023-05-29T01:51:25;20.20;65.20
8711;DHT22;4392;47.400;8.062;2023-05-29T01:54:02;20.10;64.60
8711;DHT22;4392;47.400;8.062;2023-05-29T01:56:32;20.00;64.50
8711;DHT22;4392;47.400;8.062;2023-05-29T01:59:00;20.00;64.30
8711;DHT22;4392;47.400;8.062;2023-05-29T02:01:27;20.00;65.20
8711;DHT22;4392;47.400;8.062;2023-05-29T02:03:56;20.50;68.30
8711;DHT22;4392;47.400;8.062;2023-05-29T02:06:22;20.50;65.00
8711;DHT22;4392;47.400;8.062;2023-05-29T02:08:47;20.30;65.40
8711;DHT22;4392;47.400;8.062;2023-05-29T02:11:23;20.10;65.70
8711;DHT22;4392;47.400;8.062;2023-05-29T02:13:48;20.00;66.60
8711;DHT22;4392;47.400;8.062;2023-05-29T02:16:14;19.80;67.20
8711;DHT22;4392;47.400;8.062;2023-05-29T02:18:40;19.70;67.00
8711;DHT22;4392;47.400;8.062;2023-05-29T02:21:10;19.70;67.70
8711;DHT22;4392;47.400;8.062;2023-05-29T02:23:40;19.70;68.30
8711;DHT22;4392;47.400;8.062;2023-05-29T02:26:06;19.60;68.60
8711;DHT22;4392;47.400;8.062;2023-05-29T02:28:40;19.50;68.30
8711;DHT22;4392;47.400;8.062;2023-05-29T02:31:11;19.50;68.50
8711;DHT22;4392;47.400;8.062;2023-05-29T02:33:40;19.50;69.10
8711;DHT22;4392;47.400;8.062;2023-05-29T02:36:14;19.50;69.80
8711;DHT22;4392;47.400;8.062;2023-05-29T02:38:41;19.60;68.80
8711;DHT22;4392;47.400;8.062;2023-05-29T02:43:36;19.50;68.80
8711;DHT22;4392;47.400;8.062;2023-05-29T02:46:04;19.40;67.90
8711;DHT22;4392;47.400;8.062;2023-05-29T02:48:39;19.40;68.70
8711;DHT22;4392;47.400;8.062;2023-05-29T02:51:15;19.40;69.50
8711;DHT22;4392;47.400;8.062;2023-05-29T02:53:43;19.20;69.60
8711;DHT22;4392;47.400;8.062;2023-05-29T02:56:26;19.30;72.00
8711;DHT22;4392;47.400;8.062;2023-05-29T02:58:52;19.70;70.00
8711;DHT22;4392;47.400;8.062;2023-05-29T03:01:25;19.50;69.60
8711;DHT22;4392;47.400;8.062;2023-05-29T03:03:58;19.30;70.20
8711;DHT22;4392;47.400;8.062;2023-05-29T03:06:29;19.30;70.70
8711;DHT22;4392;47.400;8.062;2023-05-29T03:09:03;19.20;70.50
8711;DHT22;4392;47.400;8.062;2023-05-29T03:11:35;19.20;70.50
8711;DHT22;4392;47.400;8.062;2023-05-29T03:14:08;19.10;70.40
8711;DHT22;4392;47.400;8.062;2023-05-29T03:19:06;19.10;70.60
8711;DHT22;4392;47.400;8.062;2023-05-29T03:21:41;19.00;70.70
8711;DHT22;4392;47.400;8.062;2023-05-29T03:24:07;19.00;71.40
8711;DHT22;4392;47.400;8.062;2023-05-29T03:26:33;19.00;71.50
8711;DHT22;4392;47.400;8.062;2023-05-29T03:29:01;19.00;71.60
8711;DHT22;4392;47.400;8.062;2023-05-29T03:31:31;19.00;71.20
8711;DHT22;4392;47.400;8.062;2023-05-29T03:34:00;18.90;72.20
8711;DHT22;4392;47.400;8.062;2023-05-29T03:36:27;18.90;71.40
8711;DHT22;4392;47.400;8.062;2023-05-29T03:38:56;18.90;70.80
8711;DHT22;4392;47.400;8.062;2023-05-29T03:41:38;18.90;69.60
8711;DHT22;4392;47.400;8.062;2023-05-29T03:44:04;18.80;68.50
8711;DHT22;4392;47.400;8.062;2023-05-29T03:46:39;18.80;67.80
8711;DHT22;4392;47.400;8.062;2023-05-29T03:49:09;18.80;66.90
8711;DHT22;4392;47.400;8.062;2023-05-29T03:51:44;18.80;66.60
8711;DHT22;4392;47.400;8.062;2023-05-29T03:54:22;18.80;66.00
8711;DHT22;4392;47.400;8.062;2023-05-29T03:56:58;18.80;65.90
8711;DHT22;4392;47.400;8.062;2023-05-29T03:59:30;18.90;66.40
8711;DHT22;4392;47.400;8.062;2023-05-29T04:01:56;18.90;66.80
8711;DHT22;4392;47.400;8.062;2023-05-29T04:04:26;18.80;66.90
8711;DHT22;4392;47.400;8.062;2023-05-29T04:06:56;18.80;67.30
8711;DHT22;4392;47.400;8.062;2023-05-29T04:09:35;18.80;67.60
8711;DHT22;4392;47.400;8.062;2023-05-29T04:12:17;18.80;68.10
8711;DHT22;4392;47.400;8.062;2023-05-29T04:14:43;18.80;68.60
8711;DHT22;4392;47.400;8.062;2023-05-29T04:17:17;18.80;68.60
8711;DHT22;4392;47.400;8.062;2023-05-29T04:19:42;18.80;69.40
8711;DHT22;4392;47.400;8.062;2023-05-29T04:22:13;18.80;69.40
8711;DHT22;4392;47.400;8.062;2023-05-29T04:24:41;18.80;69.50
8711;DHT22;4392;47.400;8.062;2023-05-29T04:27:12;18.80;70.00
8711;DHT22;4392;47.400;8.062;2023-05-29T04:29:41;18.80;69.60
8711;DHT22;4392;47.400;8.062;2023-05-29T04:32:19;18.70;69.50
8711;DHT22;4392;47.400;8.062;2023-05-29T04:34:44;18.70;69.50
8711;DHT22;4392;47.400;8.062;2023-05-29T04:37:10;18.80;69.70
8711;DHT22;4392;47.400;8.062;2023-05-29T04:39:36;18.70;69.30
8711;DHT22;4392;47.400;8.062;2023-05-29T04:42:01;18.80;68.70
8711;DHT22;4392;47.400;8.062;2023-05-29T04:44:27;18.80;68.40
8711;DHT22;4392;47.400;8.062;2023-05-29T04:46:57;18.80;67.90
8711;DHT22;4392;47.400;8.062;2023-05-29T04:49:33;18.80;68.30
8711;DHT22;4392;47.400;8.062;2023-05-29T04:52:09;18.80;68.50
8711;DHT22;4392;47.400;8.062;2023-05-29T04:54:34;18.80;68.20
8711;DHT22;4392;47.400;8.062;2023-05-29T04:57:01;18.80;68.20
8711;DHT22;4392;47.400;8.062;2023-05-29T04:59:34;18.70;68.10
8711;DHT22;4392;47.400;8.062;2023-05-29T05:02:03;18.80;68.40
8711;DHT22;4392;47.400;8.062;2023-05-29T05:04:34;18.80;68.70
8711;DHT22;4392;47.400;8.062;2023-05-29T05:07:03;18.80;68.20
8711;DHT22;4392;47.400;8.062;2023-05-29T05:09:44;18.80;68.10
8711;DHT22;4392;47.400;8.062;2023-05-29T05:12:14;18.80;68.40
8711;DHT22;4392;47.400;8.062;2023-05-29T05:14:40;18.90;68.30
8711;DHT22;4392;47.400;8.062;2023-05-29T05:17:06;18.90;67.50
8711;DHT22;4392;47.400;8.062;2023-05-29T05:19:31;18.90;67.70
8711;DHT22;4392;47.400;8.062;2023-05-29T05:21:59;18.90;66.00
8711;DHT22;4392;47.400;8.062;2023-05-29T05:24:38;18.90;65.90
8711;DHT22;4392;47.400;8.062;2023-05-29T05:27:08;18.90;66.00
8711;DHT22;4392;47.400;8.062;2023-05-29T05:29:45;18.90;65.40
8711;DHT22;4392;47.400;8.062;2023-05-29T05:32:16;18.90;66.00
8711;DHT22;4392;47.400;8.062;2023-05-29T05:34:53;18.90;66.30
8711;DHT22;4392;47.400;8.062;2023-05-29T05:37:18;18.90;67.00
8711;DHT22;4392;47.400;8.062;2023-05-29T05:39:54;19.00;66.70
8711;DHT22;4392;47.400;8.062;2023-05-29T05:42:22;19.00;67.20
8711;DHT22;4392;47.400;8.062;2023-05-29T05:44:50;19.00;66.30
8711;DHT22;4392;47.400;8.062;2023-05-29T05:47:21;19.00;66.10
8711;DHT22;4392;47.400;8.062;2023-05-29T05:49:47;19.10;65.70
8711;DHT22;4392;47.400;8.062;2023-05-29T05:52:21;19.10;64.50
8711;DHT22;4392;47.400;8.062;2023-05-29T05:54:46;19.10;64.00
8711;DHT22;4392;47.400;8.062;2023-05-29T05:57:17;19.10;62.80
8711;DHT22;4392;47.400;8.062;2023-05-29T05:59:45;19.20;62.70
8711;DHT22;4392;47.400;8.062;2023-05-29T06:02:18;19.20;62.40
8711;DHT22;4392;47.400;8.062;2023-05-29T06:04:48;19.30;61.90
8711;DHT22;4392;47.400;8.062;2023-05-29T06:07:23;19.30;61.70
8711;DHT22;4392;47.400;8.062;2023-05-29T06:09:57;19.40;61.70
8711;DHT22;4392;47.400;8.062;2023-05-29T06:12:23;19.40;61.60
8711;DHT22;4392;47.400;8.062;2023-05-29T06:15:03;19.40;61.50
8711;DHT22;4392;47.400;8.062;2023-05-29T06:17:32;19.40;61.40
8711;DHT22;4392;47.400;8.062;2023-05-29T06:20:02;19.50;61.40
8711;DHT22;4392;47.400;8.062;2023-05-29T06:22:40;19.50;61.80
8711;DHT22;4392;47.400;8.062;2023-05-29T06:25:07;19.50;62.00
8711;DHT22;4392;47.400;8.062;2023-05-29T06:27:41;19.60;61.80
8711;DHT22;4392;47.400;8.062;2023-05-29T06:30:15;19.60;61.60
8711;DHT22;4392;47.400;8.062;2023-05-29T06:32:44;19.60;61.80
8711;DHT22;4392;47.400;8.062;2023-05-29T06:35:12;19.60;61.80
8711;DHT22;4392;47.400;8.062;2023-05-29T06:37:44;19.60;61.50
8711;DHT22;4392;47.400;8.062;2023-05-29T06:40:32;19.70;61.50
8711;DHT22;4392;47.400;8.062;2023-05-29T06:42:58;19.70;61.30
8711;DHT22;4392;47.400;8.062;2023-05-29T06:45:35;19.70;61.10
8711;DHT22;4392;47.400;8.062;2023-05-29T06:48:03;19.70;61.40
8711;DHT22;4392;47.400;8.062;2023-05-29T06:50:35;19.70;61.20
8711;DHT22;4392;47.400;8.062;2023-05-29T06:53:03;19.80;61.20
8711;DHT22;4392;47.400;8.062;2023-05-29T06:55:48;19.80;61.30
8711;DHT22;4392;47.400;8.062;2023-05-29T06:58:19;19.80;60.90
8711;DHT22;4392;47.400;8.062;2023-05-29T07:00:47;19.80;59.90
8711;DHT22;4392;47.400;8.062;2023-05-29T07:03:13;19.80;60.00
8711;DHT22;4392;47.400;8.062;2023-05-29T07:05:41;19.80;60.10
8711;DHT22;4392;47.400;8.062;2023-05-29T07:08:16;19.80;59.90
8711;DHT22;4392;47.400;8.062;2023-05-29T07:10:46;19.80;59.90
8711;DHT22;4392;47.400;8.062;2023-05-29T07:13:17;19.90;59.80
8711;DHT22;4392;47.400;8.062;2023-05-29T07:15:50;19.90;59.70
8711;DHT22;4392;47.400;8.062;2023-05-29T07:18:16;19.90;59.50
8711;DHT22;4392;47.400;8.062;2023-05-29T07:20:56;19.90;59.70
8711;DHT22;4392;47.400;8.062;2023-05-29T07:23:25;20.00;59.90
8711;DHT22;4392;47.400;8.062;2023-05-29T07:25:51;20.00;60.00
8711;DHT22;4392;47.400;8.062;2023-05-29T07:28:19;20.10;60.40
8711;DHT22;4392;47.400;8.062;2023-05-29T07:31:21;20.10;60.60
8711;DHT22;4392;47.400;8.062;2023-05-29T07:34:13;20.10;60.60
8711;DHT22;4392;47.400;8.062;2023-05-29T07:36:57;20.20;60.80
8711;DHT22;4392;47.400;8.062;2023-05-29T07:39:51;20.20;61.10
8711;DHT22;4392;47.400;8.062;2023-05-29T07:42:19;20.20;60.90
8711;DHT22;4392;47.400;8.062;2023-05-29T07:45:18;20.20;61.10
8711;DHT22;4392;47.400;8.062;2023-05-29T07:47:51;20.30;61.30
8711;DHT22;4392;47.400;8.062;2023-05-29T07:50:16;20.30;61.40
8711;DHT22;4392;47.400;8.062;2023-05-29T07:52:43;20.40;61.60
8711;DHT22;4392;47.400;8.062;2023-05-29T07:55:11;20.40;61.30
8711;DHT22;4392;47.400;8.062;2023-05-29T07:57:38;20.40;61.10
8711;DHT22;4392;47.400;8.062;2023-05-29T08:00:05;20.40;61.60
8711;DHT22;4392;47.400;8.062;2023-05-29T08:02:39;20.50;61.20
8711;DHT22;4392;47.400;8.062;2023-05-29T08:05:12;20.50;61.50
8711;DHT22;4392;47.400;8.062;2023-05-29T08:07:53;20.50;62.00
8711;DHT22;4392;47.400;8.062;2023-05-29T08:10:26;20.60;62.10
8711;DHT22;4392;47.400;8.062;2023-05-29T08:13:00;20.60;61.80
8711;DHT22;4392;47.400;8.062;2023-05-29T08:15:50;20.50;61.10
8711;DHT22;4392;47.400;8.062;2023-05-29T08:18:36;20.50;61.40
8711;DHT22;4392;47.400;8.062;2023-05-29T08:21:08;20.50;60.60
8711;DHT22;4392;47.400;8.062;2023-05-29T08:23:35;20.60;60.60
8711;DHT22;4392;47.400;8.062;2023-05-29T08:26:08;20.70;60.90
8711;DHT22;4392;47.400;8.062;2023-05-29T08:29:07;20.70;61.10
8711;DHT22;4392;47.400;8.062;2023-05-29T08:31:37;20.80;61.40
8711;DHT22;4392;47.400;8.062;2023-05-29T08:34:16;20.80;62.00
8711;DHT22;4392;47.400;8.062;2023-05-29T08:36:48;20.90;62.40
8711;DHT22;4392;47.400;8.062;2023-05-29T08:39:42;21.00;61.50
8711;DHT22;4392;47.400;8.062;2023-05-29T08:42:39;21.00;61.20
8711;DHT22;4392;47.400;8.062;2023-05-29T08:45:09;21.00;61.60
8711;DHT22;4392;47.400;8.062;2023-05-29T08:47:43;21.00;62.20
8711;DHT22;4392;47.400;8.062;2023-05-29T08:50:22;21.20;62.50
8711;DHT22;4392;47.400;8.062;2023-05-29T08:52:51;21.10;62.60
8711;DHT22;4392;47.400;8.062;2023-05-29T08:55:23;21.20;62.60
8711;DHT22;4392;47.400;8.062;2023-05-29T09:00:24;21.10;60.80
8711;DHT22;4392;47.400;8.062;2023-05-29T09:02:57;21.20;61.20
8711;DHT22;4392;47.400;8.062;2023-05-29T09:05:25;21.30;61.10
8711;DHT22;4392;47.400;8.062;2023-05-29T09:07:53;21.40;61.60
8711;DHT22;4392;47.400;8.062;2023-05-29T09:11:02;21.30;62.20
8711;DHT22;4392;47.400;8.062;2023-05-29T09:13:31;21.40;61.80
8711;DHT22;4392;47.400;8.062;2023-05-29T09:16:20;21.50;62.50
8711;DHT22;4392;47.400;8.062;2023-05-29T09:19:12;21.40;62.10
8711;DHT22;4392;47.400;8.062;2023-05-29T09:21:42;21.40;61.40
8711;DHT22;4392;47.400;8.062;2023-05-29T09:24:10;21.40;61.00
8711;DHT22;4392;47.400;8.062;2023-05-29T09:26:36;21.40;60.40
8711;DHT22;4392;47.400;8.062;2023-05-29T09:29:06;21.50;61.00
8711;DHT22;4392;47.400;8.062;2023-05-29T09:31:32;21.60;60.60
8711;DHT22;4392;47.400;8.062;2023-05-29T09:34:07;21.60;60.90
8711;DHT22;4392;47.400;8.062;2023-05-29T09:36:33;21.60;60.30
8711;DHT22;4392;47.400;8.062;2023-05-29T09:39:07;21.50;60.80
8711;DHT22;4392;47.400;8.062;2023-05-29T09:41:46;21.60;61.10
8711;DHT22;4392;47.400;8.062;2023-05-29T09:44:35;21.70;61.70
8711;DHT22;4392;47.400;8.062;2023-05-29T09:47:07;21.60;60.50
8711;DHT22;4392;47.400;8.062;2023-05-29T09:49:46;21.60;61.10
8711;DHT22;4392;47.400;8.062;2023-05-29T09:52:14;21.60;61.10
8711;DHT22;4392;47.400;8.062;2023-05-29T09:55:03;21.70;61.50
8711;DHT22;4392;47.400;8.062;2023-05-29T09:57:31;21.70;61.40
8711;DHT22;4392;47.400;8.062;2023-05-29T10:00:06;21.80;61.70
8711;DHT22;4392;47.400;8.062;2023-05-29T10:02:42;21.80;60.90
8711;DHT22;4392;47.400;8.062;2023-05-29T10:05:13;21.80;60.40
8711;DHT22;4392;47.400;8.062;2023-05-29T10:07:55;21.90;60.00
8711;DHT22;4392;47.400;8.062;2023-05-29T10:10:30;21.90;60.20
8711;DHT22;4392;47.400;8.062;2023-05-29T10:13:01;21.90;60.00
8711;DHT22;4392;47.400;8.062;2023-05-29T10:15:41;21.90;59.80
8711;DHT22;4392;47.400;8.062;2023-05-29T10:18:27;21.90;60.40
8711;DHT22;4392;47.400;8.062;2023-05-29T10:20:56;21.90;60.40
8711;DHT22;4392;47.400;8.062;2023-05-29T10:23:28;22.00;60.50
8711;DHT22;4392;47.400;8.062;2023-05-29T10:26:15;22.00;60.20
8711;DHT22;4392;47.400;8.062;2023-05-29T10:40:30;22.20;61.30
8711;DHT22;4392;47.400;8.062;2023-05-29T10:42:56;22.30;61.10
8711;DHT22;4392;47.400;8.062;2023-05-29T10:45:53;22.20;60.40
8711;DHT22;4392;47.400;8.062;2023-05-29T10:48:35;22.30;60.30
8711;DHT22;4392;47.400;8.062;2023-05-29T10:51:23;22.30;59.70
8711;DHT22;4392;47.400;8.062;2023-05-29T10:54:21;22.30;59.60
8711;DHT22;4392;47.400;8.062;2023-05-29T10:57:10;22.30;59.80
8711;DHT22;4392;47.400;8.062;2023-05-29T10:59:44;22.40;59.70
8711;DHT22;4392;47.400;8.062;2023-05-29T11:02:28;22.40;59.60
8711;DHT22;4392;47.400;8.062;2023-05-29T11:07:57;22.40;59.80
8711;DHT22;4392;47.400;8.062;2023-05-29T11:13:29;22.40;58.50
8711;DHT22;4392;47.400;8.062;2023-05-29T11:16:20;22.40;59.50
8711;DHT22;4392;47.400;8.062;2023-05-29T11:19:07;22.50;59.20
8711;DHT22;4392;47.400;8.062;2023-05-29T11:22:05;22.60;59.20
8711;DHT22;4392;47.400;8.062;2023-05-29T11:24:55;22.50;58.20
8711;DHT22;4392;47.400;8.062;2023-05-29T11:27:43;22.50;57.40
8711;DHT22;4392;47.400;8.062;2023-05-29T11:30:12;22.60;61.30
8711;DHT22;4392;47.400;8.062;2023-05-29T11:32:45;22.70;65.70
8711;DHT22;4392;47.400;8.062;2023-05-29T11:35:23;22.70;65.20
8711;DHT22;4392;47.400;8.062;2023-05-29T11:40:50;22.80;66.80
8711;DHT22;4392;47.400;8.062;2023-05-29T11:43:31;22.80;59.40
8711;DHT22;4392;47.400;8.062;2023-05-29T11:46:19;22.90;64.10
8711;DHT22;4392;47.400;8.062;2023-05-29T11:48:46;22.90;59.90
8711;DHT22;4392;47.400;8.062;2023-05-29T11:51:12;22.90;58.60
8711;DHT22;4392;47.400;8.062;2023-05-29T11:53:49;22.80;57.70
8711;DHT22;4392;47.400;8.062;2023-05-29T11:56:29;22.80;58.00
8711;DHT22;4392;47.400;8.062;2023-05-29T11:59:21;22.90;57.90
8711;DHT22;4392;47.400;8.062;2023-05-29T12:01:50;22.90;58.20
8711;DHT22;4392;47.400;8.062;2023-05-29T12:04:21;22.90;58.20
8711;DHT22;4392;47.400;8.062;2023-05-29T12:06:49;22.90;58.30
8711;DHT22;4392;47.400;8.062;2023-05-29T12:09:45;22.90;57.80
8711;DHT22;4392;47.400;8.062;2023-05-29T12:12:11;22.90;57.80
8711;DHT22;4392;47.400;8.062;2023-05-29T12:14:37;23.00;57.40
8711;DHT22;4392;47.400;8.062;2023-05-29T12:17:02;23.00;57.10
8711;DHT22;4392;47.400;8.062;2023-05-29T12:19:37;23.10;57.70
8711;DHT22;4392;47.400;8.062;2023-05-29T12:22:35;23.10;57.80
8711;DHT22;4392;47.400;8.062;2023-05-29T12:32:51;23.40;57.70
8711;DHT22;4392;47.400;8.062;2023-05-29T12:35:28;23.40;56.20
8711;DHT22;4392;47.400;8.062;2023-05-29T12:38:06;23.50;56.70
8711;DHT22;4392;47.400;8.062;2023-05-29T12:43:48;23.60;55.60
8711;DHT22;4392;47.400;8.062;2023-05-29T12:46:39;23.70;55.40
8711;DHT22;4392;47.400;8.062;2023-05-29T12:49:18;23.80;54.40
8711;DHT22;4392;47.400;8.062;2023-05-29T12:51:50;23.80;54.10
8711;DHT22;4392;47.400;8.062;2023-05-29T12:54:22;23.90;54.70
8711;DHT22;4392;47.400;8.062;2023-05-29T12:56:54;24.00;54.50
8711;DHT22;4392;47.400;8.062;2023-05-29T13:00:05;24.10;54.50
8711;DHT22;4392;47.400;8.062;2023-05-29T13:02:53;24.20;52.10
8711;DHT22;4392;47.400;8.062;2023-05-29T13:05:39;24.20;50.90
8711;DHT22;4392;47.400;8.062;2023-05-29T13:08:05;24.30;50.80
8711;DHT22;4392;47.400;8.062;2023-05-29T13:10:34;24.40;52.90
8711;DHT22;4392;47.400;8.062;2023-05-29T13:13:18;24.40;54.10
8711;DHT22;4392;47.400;8.062;2023-05-29T13:16:06;24.50;53.40
8711;DHT22;4392;47.400;8.062;2023-05-29T13:18:52;24.60;50.70
8711;DHT22;4392;47.400;8.062;2023-05-29T13:21:20;24.60;52.40
8711;DHT22;4392;47.400;8.062;2023-05-29T13:23:58;24.80;51.80
8711;DHT22;4392;47.400;8.062;2023-05-29T13:26:33;24.90;51.70
8711;DHT22;4392;47.400;8.062;2023-05-29T13:31:58;24.90;51.80
8711;DHT22;4392;47.400;8.062;2023-05-29T13:34:33;25.00;49.70
8711;DHT22;4392;47.400;8.062;2023-05-29T13:37:09;25.10;48.90
8711;DHT22;4392;47.400;8.062;2023-05-29T13:39:55;25.20;48.90
8711;DHT22;4392;47.400;8.062;2023-05-29T13:42:21;25.30;48.50
8711;DHT22;4392;47.400;8.062;2023-05-29T13:44:48;25.40;47.30
8711;DHT22;4392;47.400;8.062;2023-05-29T13:47:42;25.40;47.00
8711;DHT22;4392;47.400;8.062;2023-05-29T13:50:11;25.40;48.10
8711;DHT22;4392;47.400;8.062;2023-05-29T13:52:38;25.40;49.20
8711;DHT22;4392;47.400;8.062;2023-05-29T13:55:08;25.50;49.80
8711;DHT22;4392;47.400;8.062;2023-05-29T13:57:55;25.80;49.00
8711;DHT22;4392;47.400;8.062;2023-05-29T14:00:23;25.80;49.70
8711;DHT22;4392;47.400;8.062;2023-05-29T14:02:49;25.90;49.40
8711;DHT22;4392;47.400;8.062;2023-05-29T14:05:38;26.00;48.50
8711;DHT22;4392;47.400;8.062;2023-05-29T14:08:26;26.10;48.20
8711;DHT22;4392;47.400;8.062;2023-05-29T14:11:20;26.20;48.00
8711;DHT22;4392;47.400;8.062;2023-05-29T14:14:13;26.30;48.00
8711;DHT22;4392;47.400;8.062;2023-05-29T14:16:41;26.40;48.00
8711;DHT22;4392;47.400;8.062;2023-05-29T14:19:12;26.40;46.50
8711;DHT22;4392;47.400;8.062;2023-05-29T14:21:37;26.50;47.10
8711;DHT22;4392;47.400;8.062;2023-05-29T14:24:19;26.60;46.50
8711;DHT22;4392;47.400;8.062;2023-05-29T14:27:00;26.70;45.90
8711;DHT22;4392;47.400;8.062;2023-05-29T14:29:52;26.80;45.70
8711;DHT22;4392;47.400;8.062;2023-05-29T14:32:32;27.00;46.20
8711;DHT22;4392;47.400;8.062;2023-05-29T14:35:21;27.00;46.70
8711;DHT22;4392;47.400;8.062;2023-05-29T14:37:49;27.20;46.60
8711;DHT22;4392;47.400;8.062;2023-05-29T14:40:26;27.00;45.40
8711;DHT22;4392;47.400;8.062;2023-05-29T14:42:59;27.00;46.00
8711;DHT22;4392;47.400;8.062;2023-05-29T14:45:32;27.10;45.20
8711;DHT22;4392;47.400;8.062;2023-05-29T14:48:01;27.30;45.30
8711;DHT22;4392;47.400;8.062;2023-05-29T14:50:30;27.50;44.40
8711;DHT22;4392;47.400;8.062;2023-05-29T14:52:58;27.50;44.80
8711;DHT22;4392;47.400;8.062;2023-05-29T14:55:24;27.40;46.10
8711;DHT22;4392;47.400;8.062;2023-05-29T14:58:11;27.30;46.60
8711;DHT22;4392;47.400;8.062;2023-05-29T15:00:47;27.50;44.40
8711;DHT22;4392;47.400;8.062;2023-05-29T15:03:35;27.70;43.50
8711;DHT22;4392;47.400;8.062;2023-05-29T15:06:08;27.70;42.60
8711;DHT22;4392;47.400;8.062;2023-05-29T15:09:11;27.80;42.20
8711;DHT22;4392;47.400;8.062;2023-05-29T15:11:55;27.90;42.30
8711;DHT22;4392;47.400;8.062;2023-05-29T15:14:41;27.90;42.50
8711;DHT22;4392;47.400;8.062;2023-05-29T15:17:11;28.00;42.40
8711;DHT22;4392;47.400;8.062;2023-05-29T15:20:04;28.10;42.10
8711;DHT22;4392;47.400;8.062;2023-05-29T15:22:32;28.20;41.20
8711;DHT22;4392;47.400;8.062;2023-05-29T15:28:17;28.40;40.30
8711;DHT22;4392;47.400;8.062;2023-05-29T15:31:02;28.40;40.10
8711;DHT22;4392;47.400;8.062;2023-05-29T15:33:43;28.40;39.70
8711;DHT22;4392;47.400;8.062;2023-05-29T15:36:30;28.50;38.70
8711;DHT22;4392;47.400;8.062;2023-05-29T15:39:09;28.60;38.50
8711;DHT22;4392;47.400;8.062;2023-05-29T15:41:56;28.60;39.00
8711;DHT22;4392;47.400;8.062;2023-05-29T15:44:30;28.70;39.30
8711;DHT22;4392;47.400;8.062;2023-05-29T15:47:31;28.80;39.10
8711;DHT22;4392;47.400;8.062;2023-05-29T15:50:14;28.60;38.10
8711;DHT22;4392;47.400;8.062;2023-05-29T15:52:44;28.70;38.30
8711;DHT22;4392;47.400;8.062;2023-05-29T15:55:15;28.80;40.00
8711;DHT22;4392;47.400;8.062;2023-05-29T15:57:44;28.50;40.60
8711;DHT22;4392;47.400;8.062;2023-05-29T16:00:15;28.40;42.60
8711;DHT22;4392;47.400;8.062;2023-05-29T16:05:39;28.40;43.20
8711;DHT22;4392;47.400;8.062;2023-05-29T16:08:11;28.40;42.40
8711;DHT22;4392;47.400;8.062;2023-05-29T16:16:59;28.50;42.50
8711;DHT22;4392;47.400;8.062;2023-05-29T16:19:30;28.50;42.30
8711;DHT22;4392;47.400;8.062;2023-05-29T16:22:15;28.50;41.90
8711;DHT22;4392;47.400;8.062;2023-05-29T16:24:41;28.50;42.30
8711;DHT22;4392;47.400;8.062;2023-05-29T16:27:15;28.50;41.60
8711;DHT22;4392;47.400;8.062;2023-05-29T16:35:53;28.70;40.10
8711;DHT22;4392;47.400;8.062;2023-05-29T16:38:31;28.90;38.80
8711;DHT22;4392;47.400;8.062;2023-05-29T16:41:17;28.90;38.20
8711;DHT22;4392;47.400;8.062;2023-05-29T16:43:51;29.00;38.40
8711;DHT22;4392;47.400;8.062;2023-05-29T16:46:20;28.90;39.10
8711;DHT22;4392;47.400;8.062;2023-05-29T16:49:29;29.00;38.40
8711;DHT22;4392;47.400;8.062;2023-05-29T16:51:54;29.10;38.30
8711;DHT22;4392;47.400;8.062;2023-05-29T16:54:31;29.20;38.70
8711;DHT22;4392;47.400;8.062;2023-05-29T16:57:19;29.20;38.30
8711;DHT22;4392;47.400;8.062;2023-05-29T17:00:05;29.20;37.00
8711;DHT22;4392;47.400;8.062;2023-05-29T17:02:47;29.30;36.70
8711;DHT22;4392;47.400;8.062;2023-05-29T17:05:45;29.30;36.90
8711;DHT22;4392;47.400;8.062;2023-05-29T17:08:26;29.30;37.10
8711;DHT22;4392;47.400;8.062;2023-05-29T17:10:52;29.20;37.20
8711;DHT22;4392;47.400;8.062;2023-05-29T17:13:19;29.20;37.20
8711;DHT22;4392;47.400;8.062;2023-05-29T17:16:04;29.30;38.10
8711;DHT22;4392;47.400;8.062;2023-05-29T17:21:40;29.30;37.60
8711;DHT22;4392;47.400;8.062;2023-05-29T17:24:25;29.30;37.10
8711;DHT22;4392;47.400;8.062;2023-05-29T17:26:54;29.40;38.30
8711;DHT22;4392;47.400;8.062;2023-05-29T17:30:00;29.30;37.30
8711;DHT22;4392;47.400;8.062;2023-05-29T17:33:13;29.30;37.60
8711;DHT22;4392;47.400;8.062;2023-05-29T17:36:02;29.30;40.20
8711;DHT22;4392;47.400;8.062;2023-05-29T17:38:36;29.30;40.20
8711;DHT22;4392;47.400;8.062;2023-05-29T17:41:08;29.30;40.80
8711;DHT22;4392;47.400;8.062;2023-05-29T17:43:33;29.30;41.90
8711;DHT22;4392;47.400;8.062;2023-05-29T17:46:28;29.30;42.20
8711;DHT22;4392;47.400;8.062;2023-05-29T17:52:21;29.30;41.60
8711;DHT22;4392;47.400;8.062;2023-05-29T17:55:27;29.20;38.90
8711;DHT22;4392;47.400;8.062;2023-05-29T17:57:58;29.10;38.50
8711;DHT22;4392;47.400;8.062;2023-05-29T18:00:44;29.10;39.50
8711;DHT22;4392;47.400;8.062;2023-05-29T18:03:10;29.10;38.70
8711;DHT22;4392;47.400;8.062;2023-05-29T18:05:57;29.10;44.60
8711;DHT22;4392;47.400;8.062;2023-05-29T18:09:06;28.90;41.90
8711;DHT22;4392;47.400;8.062;2023-05-29T18:14:53;28.80;40.90
8711;DHT22;4392;47.400;8.062;2023-05-29T18:17:25;28.80;41.00